sensor_id;sensor_type;location;lat;lon;timestamp;temperature;humidity
51619;DHT22;38518;53.164;5.430;2024-01-30T00:01:52;5.90;99.90
51619;DHT22;38518;53.164;5.430;2024-01-30T00:04:18;5.90;99.90
51619;DHT22;38518;53.164;5.430;2024-01-30T00:06:44;6.00;99.90
51619;DHT22;38518;53.164;5.430;2024-01-30T00:09:10;6.80;99.90
51619;DHT22;38518;53.164;5.430;2024-01-30T00:11:37;6.00;99.90
51619;DHT22;38518;53.164;5.430;2024-01-30T00:14:03;6.10;99.90
51619;DHT22;38518;53.164;5.430;2024-01-30T00:16:29;6.00;99.90
51619;DHT22;38518;53.164;5.430;2024-01-30T00:18:55;6.10;99.90
51619;DHT22;38518;53.164;5.430;2024-01-30T00:21:22;6.00;99.90
51619;DHT22;38518;53.164;5.430;2024-01-30T00:23:48;6.00;99.90
51619;DHT22;38518;53.164;5.430;2024-01-30T00:26:14;6.00;99.90
51619;DHT22;38518;53.164;5.430;2024-01-30T00:28:42;6.10;99.90
51619;DHT22;38518;53.164;5.430;2024-01-30T00:31:08;6.10;99.90
51619;DHT22;38518;53.164;5.430;2024-01-30T00:33:41;6.20;99.90
51619;DHT22;38518;53.164;5.430;2024-01-30T00:36:08;6.20;99.90
51619;DHT22;38518;53.164;5.430;2024-01-30T00:38:34;6.10;99.90
51619;DHT22;38518;53.164;5.430;2024-01-30T00:41:00;6.40;99.90
51619;DHT22;38518;53.164;5.430;2024-01-30T00:43:27;6.10;99.90
51619;DHT22;38518;53.164;5.430;2024-01-30T00:45:53;6.10;99.90
51619;DHT22;38518;53.164;5.430;2024-01-30T00:48:19;6.10;99.90
51619;DHT22;38518;53.164;5.430;2024-01-30T00:50:45;6.10;99.90
51619;DHT22;38518;53.164;5.430;2024-01-30T00:53:11;6.10;99.90
51619;DHT22;38518;53.164;5.430;2024-01-30T00:55:37;6.10;99.90
51619;DHT22;38518;53.164;5.430;2024-01-30T00:58:03;6.20;99.90
51619;DHT22;38518;53.164;5.430;2024-01-30T01:00:29;6.20;99.90
51619;DHT22;38518;53.164;5.430;2024-01-30T01:02:58;6.20;99.90
51619;DHT22;38518;53.164;5.430;2024-01-30T01:05:25;6.20;99.90
51619;DHT22;38518;53.164;5.430;2024-01-30T01:07:51;6.30;99.90
51619;DHT22;38518;53.164;5.430;2024-01-30T01:10:17;6.40;99.90
51619;DHT22;38518;53.164;5.430;2024-01-30T01:12:44;6.30;99.90
51619;DHT22;38518;53.164;5.430;2024-01-30T01:15:10;6.40;99.90
51619;DHT22;38518;53.164;5.430;2024-01-30T01:17:36;7.40;99.90
51619;DHT22;38518;53.164;5.430;2024-01-30T01:20:03;6.50;99.90
51619;DHT22;38518;53.164;5.430;2024-01-30T01:22:31;6.50;99.90
51619;DHT22;38518;53.164;5.430;2024-01-30T01:24:56;6.50;99.90
51619;DHT22;38518;53.164;5.430;2024-01-30T01:27:22;6.50;99.90
51619;DHT22;38518;53.164;5.430;2024-01-30T01:29:48;6.60;99.90
51619;DHT22;38518;53.164;5.430;2024-01-30T01:32:13;6.60;99.90
51619;DHT22;38518;53.164;5.430;2024-01-30T01:34:39;6.60;99.90
51619;DHT22;38518;53.164;5.430;2024-01-30T01:37:05;6.70;99.90
51619;DHT22;38518;53.164;5.430;2024-01-30T01:39:31;6.70;99.90
51619;DHT22;38518;53.164;5.430;2024-01-30T01:41:56;6.70;99.90
51619;DHT22;38518;53.164;5.430;2024-01-30T01:44:22;7.20;99.90
51619;DHT22;38518;53.164;5.430;2024-01-30T01:46:48;6.90;99.90
51619;DHT22;38518;53.164;5.430;2024-01-30T01:49:14;6.90;99.90
51619;DHT22;38518;53.164;5.430;2024-01-30T01:51:41;6.80;99.90
51619;DHT22;38518;53.164;5.430;2024-01-30T01:54:08;6.90;99.90
51619;DHT22;38518;53.164;5.430;2024-01-30T01:56:34;6.90;99.90
51619;DHT22;38518;53.164;5.430;2024-01-30T01:59:06;6.90;99.90
51619;DHT22;38518;53.164;5.430;2024-01-30T02:01:38;6.80;99.90
51619;DHT22;38518;53.164;5.430;2024-01-30T02:04:07;6.80;99.90
51619;DHT22;38518;53.164;5.430;2024-01-30T02:06:36;6.90;99.90
51619;DHT22;38518;53.164;5.430;2024-01-30T02:09:03;6.90;99.90
51619;DHT22;38518;53.164;5.430;2024-01-30T02:11:30;7.10;99.90
51619;DHT22;38518;53.164;5.430;2024-01-30T02:13:56;6.90;99.90
51619;DHT22;38518;53.164;5.430;2024-01-30T02:16:21;6.90;99.90
51619;DHT22;38518;53.164;5.430;2024-01-30T02:18:47;6.80;99.90
51619;DHT22;38518;53.164;5.430;2024-01-30T02:21:17;6.80;99.90
51619;DHT22;38518;53.164;5.430;2024-01-30T02:23:44;6.80;99.90
51619;DHT22;38518;53.164;5.430;2024-01-30T02:26:11;6.80;99.90
51619;DHT22;38518;53.164;5.430;2024-01-30T02:28:37;6.90;99.90
51619;DHT22;38518;53.164;5.430;2024-01-30T02:31:03;6.90;99.90
51619;DHT22;38518;53.164;5.430;2024-01-30T02:33:29;6.80;99.90
51619;DHT22;38518;53.164;5.430;2024-01-30T02:35:55;7.10;99.90
51619;DHT22;38518;53.164;5.430;2024-01-30T02:38:21;6.90;99.90
51619;DHT22;38518;53.164;5.430;2024-01-30T02:40:46;6.80;99.90
51619;DHT22;38518;53.164;5.430;2024-01-30T02:43:12;6.80;99.90
51619;DHT22;38518;53.164;5.430;2024-01-30T02:45:38;7.20;99.90
51619;DHT22;38518;53.164;5.430;2024-01-30T02:48:04;6.70;99.90
51619;DHT22;38518;53.164;5.430;2024-01-30T02:50:29;6.70;99.90
51619;DHT22;38518;53.164;5.430;2024-01-30T02:52:55;6.70;99.90
51619;DHT22;38518;53.164;5.430;2024-01-30T02:55:21;7.10;99.90
51619;DHT22;38518;53.164;5.430;2024-01-30T02:57:46;6.60;99.90
51619;DHT22;38518;53.164;5.430;2024-01-30T03:00:12;6.70;99.90
51619;DHT22;38518;53.164;5.430;2024-01-30T03:02:38;6.70;99.90
51619;DHT22;38518;53.164;5.430;2024-01-30T03:05:06;6.70;99.90
51619;DHT22;38518;53.164;5.430;2024-01-30T03:07:31;6.70;99.90
51619;DHT22;38518;53.164;5.430;2024-01-30T03:09:57;6.70;99.90
51619;DHT22;38518;53.164;5.430;2024-01-30T03:12:23;6.70;99.90
51619;DHT22;38518;53.164;5.430;2024-01-30T03:14:48;6.60;99.90
51619;DHT22;38518;53.164;5.430;2024-01-30T03:17:15;6.60;99.90
51619;DHT22;38518;53.164;5.430;2024-01-30T03:19:41;6.60;99.90
51619;DHT22;38518;53.164;5.430;2024-01-30T03:22:07;6.60;99.90
51619;DHT22;38518;53.164;5.430;2024-01-30T03:24:32;7.00;99.90
51619;DHT22;38518;53.164;5.430;2024-01-30T03:26:58;6.70;99.90
51619;DHT22;38518;53.164;5.430;2024-01-30T03:29:24;7.20;99.90
51619;DHT22;38518;53.164;5.430;2024-01-30T03:31:49;6.70;99.90
51619;DHT22;38518;53.164;5.430;2024-01-30T03:34:15;6.70;99.90
51619;DHT22;38518;53.164;5.430;2024-01-30T03:36:41;6.80;99.90
51619;DHT22;38518;53.164;5.430;2024-01-30T03:39:06;6.70;99.90
51619;DHT22;38518;53.164;5.430;2024-01-30T03:41:32;6.70;99.90
51619;DHT22;38518;53.164;5.430;2024-01-30T03:43:58;6.70;99.90
51619;DHT22;38518;53.164;5.430;2024-01-30T03:46:24;6.70;99.90
51619;DHT22;38518;53.164;5.430;2024-01-30T03:48:50;6.70;99.90
51619;DHT22;38518;53.164;5.430;2024-01-30T03:51:15;6.80;99.90
51619;DHT22;38518;53.164;5.430;2024-01-30T03:53:42;6.90;99.90
51619;DHT22;38518;53.164;5.430;2024-01-30T03:56:08;6.90;99.90
51619;DHT22;38518;53.164;5.430;2024-01-30T03:58:35;6.90;99.90
51619;DHT22;38518;53.164;5.430;2024-01-30T04:01:00;6.90;99.90
51619;DHT22;38518;53.164;5.430;2024-01-30T04:03:26;6.90;99.90
51619;DHT22;38518;53.164;5.430;2024-01-30T04:05:52;6.90;99.90
51619;DHT22;38518;53.164;5.430;2024-01-30T04:08:19;6.90;99.90
51619;DHT22;38518;53.164;5.430;2024-01-30T04:10:44;7.20;99.90
51619;DHT22;38518;53.164;5.430;2024-01-30T04:13:10;7.00;99.90
51619;DHT22;38518;53.164;5.430;2024-01-30T04:15:36;7.00;99.90
51619;DHT22;38518;53.164;5.430;2024-01-30T04:18:02;7.10;99.90
51619;DHT22;38518;53.164;5.430;2024-01-30T04:20:27;7.10;99.90
51619;DHT22;38518;53.164;5.430;2024-01-30T04:22:53;7.10;99.90
51619;DHT22;38518;53.164;5.430;2024-01-30T04:25:19;7.20;99.90
51619;DHT22;38518;53.164;5.430;2024-01-30T04:27:45;7.10;99.90
51619;DHT22;38518;53.164;5.430;2024-01-30T04:30:10;7.10;99.90
51619;DHT22;38518;53.164;5.430;2024-01-30T04:32:37;7.10;99.90
51619;DHT22;38518;53.164;5.430;2024-01-30T04:35:03;7.10;99.90
51619;DHT22;38518;53.164;5.430;2024-01-30T04:37:28;7.10;99.90
51619;DHT22;38518;53.164;5.430;2024-01-30T04:39:54;7.00;99.90
51619;DHT22;38518;53.164;5.430;2024-01-30T04:42:20;7.00;99.90
51619;DHT22;38518;53.164;5.430;2024-01-30T04:44:46;7.00;99.90
51619;DHT22;38518;53.164;5.430;2024-01-30T04:47:12;7.40;99.90
51619;DHT22;38518;53.164;5.430;2024-01-30T04:49:41;7.00;99.90
51619;DHT22;38518;53.164;5.430;2024-01-30T04:52:07;6.90;99.90
51619;DHT22;38518;53.164;5.430;2024-01-30T04:54:34;6.90;99.90
51619;DHT22;38518;53.164;5.430;2024-01-30T04:57:00;6.90;99.90
51619;DHT22;38518;53.164;5.430;2024-01-30T04:59:26;6.90;99.90
51619;DHT22;38518;53.164;5.430;2024-01-30T05:01:52;7.00;99.90
51619;DHT22;38518;53.164;5.430;2024-01-30T05:04:18;7.00;99.90
51619;DHT22;38518;53.164;5.430;2024-01-30T05:06:44;7.00;99.90
51619;DHT22;38518;53.164;5.430;2024-01-30T05:09:10;7.00;99.90
51619;DHT22;38518;53.164;5.430;2024-01-30T05:11:37;7.00;99.90
51619;DHT22;38518;53.164;5.430;2024-01-30T05:14:04;7.00;99.90
51619;DHT22;38518;53.164;5.430;2024-01-30T05:16:30;7.10;99.90
51619;DHT22;38518;53.164;5.430;2024-01-30T05:18:56;7.00;99.90
51619;DHT22;38518;53.164;5.430;2024-01-30T05:21:22;7.10;99.90
51619;DHT22;38518;53.164;5.430;2024-01-30T05:23:47;7.20;99.90
51619;DHT22;38518;53.164;5.430;2024-01-30T05:26:13;7.10;99.90
51619;DHT22;38518;53.164;5.430;2024-01-30T05:28:38;7.20;99.90
51619;DHT22;38518;53.164;5.430;2024-01-30T05:31:04;7.00;99.90
51619;DHT22;38518;53.164;5.430;2024-01-30T05:33:30;7.00;99.90
51619;DHT22;38518;53.164;5.430;2024-01-30T05:35:55;7.00;99.90
51619;DHT22;38518;53.164;5.430;2024-01-30T05:38:21;7.00;99.90
51619;DHT22;38518;53.164;5.430;2024-01-30T05:40:47;7.00;99.90
51619;DHT22;38518;53.164;5.430;2024-01-30T05:43:13;7.00;99.90
51619;DHT22;38518;53.164;5.430;2024-01-30T05:45:38;7.30;99.90
51619;DHT22;38518;53.164;5.430;2024-01-30T05:48:04;7.30;99.90
51619;DHT22;38518;53.164;5.430;2024-01-30T05:50:30;7.00;99.90
51619;DHT22;38518;53.164;5.430;2024-01-30T05:52:56;7.00;99.90
51619;DHT22;38518;53.164;5.430;2024-01-30T05:55:22;7.00;99.90
51619;DHT22;38518;53.164;5.430;2024-01-30T05:57:48;7.00;99.90
51619;DHT22;38518;53.164;5.430;2024-01-30T06:00:14;7.00;99.90
51619;DHT22;38518;53.164;5.430;2024-01-30T06:02:40;7.00;99.90
51619;DHT22;38518;53.164;5.430;2024-01-30T06:05:05;7.00;99.90
51619;DHT22;38518;53.164;5.430;2024-01-30T06:07:31;7.00;99.90
51619;DHT22;38518;53.164;5.430;2024-01-30T06:09:57;7.00;99.90
51619;DHT22;38518;53.164;5.430;2024-01-30T06:12:23;7.00;99.90
51619;DHT22;38518;53.164;5.430;2024-01-30T06:14:48;7.10;99.90
51619;DHT22;38518;53.164;5.430;2024-01-30T06:17:14;7.10;99.90
51619;DHT22;38518;53.164;5.430;2024-01-30T06:19:40;7.10;99.90
51619;DHT22;38518;53.164;5.430;2024-01-30T06:22:05;7.30;99.90
51619;DHT22;38518;53.164;5.430;2024-01-30T06:24:31;7.10;99.90
51619;DHT22;38518;53.164;5.430;2024-01-30T06:26:57;7.10;99.90
51619;DHT22;38518;53.164;5.430;2024-01-30T06:29:22;7.10;99.90
51619;DHT22;38518;53.164;5.430;2024-01-30T06:31:50;7.10;99.90
51619;DHT22;38518;53.164;5.430;2024-01-30T06:34:16;7.00;99.90
51619;DHT22;38518;53.164;5.430;2024-01-30T06:36:41;7.30;99.90
51619;DHT22;38518;53.164;5.430;2024-01-30T06:39:07;7.10;99.90
51619;DHT22;38518;53.164;5.430;2024-01-30T06:41:33;7.00;99.90
51619;DHT22;38518;53.164;5.430;2024-01-30T06:43:59;7.00;99.90
51619;DHT22;38518;53.164;5.430;2024-01-30T06:46:25;7.00;99.90
51619;DHT22;38518;53.164;5.430;2024-01-30T06:48:51;7.00;99.90
51619;DHT22;38518;53.164;5.430;2024-01-30T06:51:16;7.00;99.90
51619;DHT22;38518;53.164;5.430;2024-01-30T06:53:42;7.00;99.90
51619;DHT22;38518;53.164;5.430;2024-01-30T06:56:08;7.10;99.90
51619;DHT22;38518;53.164;5.430;2024-01-30T06:58:34;7.00;99.90
51619;DHT22;38518;53.164;5.430;2024-01-30T07:00:59;7.00;99.90
51619;DHT22;38518;53.164;5.430;2024-01-30T07:03:25;7.00;99.90
51619;DHT22;38518;53.164;5.430;2024-01-30T07:05:51;7.00;99.90
51619;DHT22;38518;53.164;5.430;2024-01-30T07:08:17;7.00;99.90
51619;DHT22;38518;53.164;5.430;2024-01-30T07:10:46;7.00;99.90
51619;DHT22;38518;53.164;5.430;2024-01-30T07:13:13;7.00;99.90
51619;DHT22;38518;53.164;5.430;2024-01-30T07:15:38;7.00;99.90
51619;DHT22;38518;53.164;5.430;2024-01-30T07:18:05;7.00;99.90
51619;DHT22;38518;53.164;5.430;2024-01-30T07:20:31;7.00;99.90
51619;DHT22;38518;53.164;5.430;2024-01-30T07:23:00;7.00;99.90
51619;DHT22;38518;53.164;5.430;2024-01-30T07:25:26;6.90;99.90
51619;DHT22;38518;53.164;5.430;2024-01-30T07:27:56;6.90;99.90
51619;DHT22;38518;53.164;5.430;2024-01-30T07:30:22;6.90;99.90
51619;DHT22;38518;53.164;5.430;2024-01-30T07:32:49;6.90;99.90
51619;DHT22;38518;53.164;5.430;2024-01-30T07:35:14;6.80;99.90
51619;DHT22;38518;53.164;5.430;2024-01-30T07:37:40;6.90;99.90
51619;DHT22;38518;53.164;5.430;2024-01-30T07:40:06;6.90;99.90
51619;DHT22;38518;53.164;5.430;2024-01-30T07:42:33;6.90;99.90
51619;DHT22;38518;53.164;5.430;2024-01-30T07:44:59;6.90;99.90
51619;DHT22;38518;53.164;5.430;2024-01-30T07:47:25;7.00;99.90
51619;DHT22;38518;53.164;5.430;2024-01-30T07:49:51;7.00;99.90
51619;DHT22;38518;53.164;5.430;2024-01-30T07:52:17;7.00;99.90
51619;DHT22;38518;53.164;5.430;2024-01-30T07:54:49;7.00;99.90
51619;DHT22;38518;53.164;5.430;2024-01-30T07:57:15;7.00;99.90
51619;DHT22;38518;53.164;5.430;2024-01-30T07:59:45;7.00;99.90
51619;DHT22;38518;53.164;5.430;2024-01-30T08:02:12;8.00;99.90
51619;DHT22;38518;53.164;5.430;2024-01-30T08:04:38;7.10;99.90
51619;DHT22;38518;53.164;5.430;2024-01-30T08:07:04;7.00;99.90
51619;DHT22;38518;53.164;5.430;2024-01-30T08:09:29;8.10;99.90
51619;DHT22;38518;53.164;5.430;2024-01-30T08:11:55;7.10;99.90
51619;DHT22;38518;53.164;5.430;2024-01-30T08:14:21;7.20;99.90
51619;DHT22;38518;53.164;5.430;2024-01-30T08:16:46;7.40;99.90
51619;DHT22;38518;53.164;5.430;2024-01-30T08:19:12;7.30;99.90
51619;DHT22;38518;53.164;5.430;2024-01-30T08:21:38;7.30;99.90
51619;DHT22;38518;53.164;5.430;2024-01-30T08:24:04;7.30;99.90
51619;DHT22;38518;53.164;5.430;2024-01-30T08:26:31;7.40;99.90
51619;DHT22;38518;53.164;5.430;2024-01-30T08:28:57;7.90;99.90
51619;DHT22;38518;53.164;5.430;2024-01-30T08:31:23;7.50;99.90
51619;DHT22;38518;53.164;5.430;2024-01-30T08:33:48;7.50;99.90
51619;DHT22;38518;53.164;5.430;2024-01-30T08:36:16;7.60;99.90
51619;DHT22;38518;53.164;5.430;2024-01-30T08:38:41;7.70;99.90
51619;DHT22;38518;53.164;5.430;2024-01-30T08:41:08;7.70;99.90
51619;DHT22;38518;53.164;5.430;2024-01-30T08:43:34;7.70;99.90
51619;DHT22;38518;53.164;5.430;2024-01-30T08:46:00;7.70;99.90
51619;DHT22;38518;53.164;5.430;2024-01-30T08:48:26;7.80;99.90
51619;DHT22;38518;53.164;5.430;2024-01-30T08:50:52;7.90;99.90
51619;DHT22;38518;53.164;5.430;2024-01-30T08:53:18;7.80;99.90
51619;DHT22;38518;53.164;5.430;2024-01-30T08:55:44;7.90;99.90
51619;DHT22;38518;53.164;5.430;2024-01-30T08:58:10;8.00;99.90
51619;DHT22;38518;53.164;5.430;2024-01-30T09:00:36;8.00;99.90
51619;DHT22;38518;53.164;5.430;2024-01-30T09:03:02;8.00;99.90
51619;DHT22;38518;53.164;5.430;2024-01-30T09:05:28;8.00;99.90
51619;DHT22;38518;53.164;5.430;2024-01-30T09:07:54;7.60;99.90
51619;DHT22;38518;53.164;5.430;2024-01-30T09:10:19;8.10;99.90
51619;DHT22;38518;53.164;5.430;2024-01-30T09:12:46;8.10;99.90
51619;DHT22;38518;53.164;5.430;2024-01-30T09:15:12;8.10;99.90
51619;DHT22;38518;53.164;5.430;2024-01-30T09:17:38;8.00;99.90
51619;DHT22;38518;53.164;5.430;2024-01-30T09:20:05;8.10;99.90
51619;DHT22;38518;53.164;5.430;2024-01-30T09:22:30;8.10;99.90
51619;DHT22;38518;53.164;5.430;2024-01-30T09:24:57;8.10;99.90
51619;DHT22;38518;53.164;5.430;2024-01-30T09:27:23;8.10;99.90
51619;DHT22;38518;53.164;5.430;2024-01-30T09:29:48;8.00;99.90
51619;DHT22;38518;53.164;5.430;2024-01-30T09:32:15;8.40;99.90
51619;DHT22;38518;53.164;5.430;2024-01-30T09:34:41;7.90;99.90
51619;DHT22;38518;53.164;5.430;2024-01-30T09:37:07;8.10;99.90
51619;DHT22;38518;53.164;5.430;2024-01-30T09:39:33;7.80;99.90
51619;DHT22;38518;53.164;5.430;2024-01-30T09:42:20;7.80;99.90
51619;DHT22;38518;53.164;5.430;2024-01-30T09:44:47;7.70;99.90
51619;DHT22;38518;53.164;5.430;2024-01-30T09:47:16;8.40;99.90
51619;DHT22;38518;53.164;5.430;2024-01-30T09:49:43;7.90;99.90
51619;DHT22;38518;53.164;5.430;2024-01-30T09:52:09;7.90;99.90
51619;DHT22;38518;53.164;5.430;2024-01-30T09:54:36;8.00;99.90
51619;DHT22;38518;53.164;5.430;2024-01-30T09:57:04;8.00;99.90
51619;DHT22;38518;53.164;5.430;2024-01-30T09:59:30;8.00;99.90
51619;DHT22;38518;53.164;5.430;2024-01-30T10:01:56;8.00;99.90
51619;DHT22;38518;53.164;5.430;2024-01-30T10:04:22;8.00;99.90
51619;DHT22;38518;53.164;5.430;2024-01-30T10:06:48;8.00;99.90
51619;DHT22;38518;53.164;5.430;2024-01-30T10:09:14;8.00;99.90
51619;DHT22;38518;53.164;5.430;2024-01-30T10:11:40;8.00;99.90
51619;DHT22;38518;53.164;5.430;2024-01-30T10:14:06;8.00;99.90
51619;DHT22;38518;53.164;5.430;2024-01-30T10:16:32;8.00;99.90
51619;DHT22;38518;53.164;5.430;2024-01-30T10:18:58;8.00;99.90
51619;DHT22;38518;53.164;5.430;2024-01-30T10:21:23;8.00;99.90
51619;DHT22;38518;53.164;5.430;2024-01-30T10:23:50;8.00;99.90
51619;DHT22;38518;53.164;5.430;2024-01-30T10:26:19;8.00;99.90
51619;DHT22;38518;53.164;5.430;2024-01-30T10:28:45;7.90;99.90
51619;DHT22;38518;53.164;5.430;2024-01-30T10:31:10;7.90;99.90
51619;DHT22;38518;53.164;5.430;2024-01-30T10:33:36;7.90;99.90
51619;DHT22;38518;53.164;5.430;2024-01-30T10:36:03;7.90;99.90
51619;DHT22;38518;53.164;5.430;2024-01-30T10:38:30;7.90;99.90
51619;DHT22;38518;53.164;5.430;2024-01-30T10:40:57;7.90;99.90
51619;DHT22;38518;53.164;5.430;2024-01-30T10:43:47;7.90;99.90
51619;DHT22;38518;53.164;5.430;2024-01-30T10:46:20;7.90;99.90
51619;DHT22;38518;53.164;5.430;2024-01-30T10:48:55;8.10;99.90
51619;DHT22;38518;53.164;5.430;2024-01-30T10:51:22;7.90;99.90
51619;DHT22;38518;53.164;5.430;2024-01-30T10:53:49;7.90;99.90
51619;DHT22;38518;53.164;5.430;2024-01-30T10:56:16;8.00;99.90
51619;DHT22;38518;53.164;5.430;2024-01-30T10:58:42;8.00;99.90
51619;DHT22;38518;53.164;5.430;2024-01-30T11:01:08;8.10;99.90
51619;DHT22;38518;53.164;5.430;2024-01-30T11:03:35;8.10;99.90
51619;DHT22;38518;53.164;5.430;2024-01-30T11:06:02;8.10;99.90
51619;DHT22;38518;53.164;5.430;2024-01-30T11:08:28;8.10;99.90
51619;DHT22;38518;53.164;5.430;2024-01-30T11:10:58;8.10;99.90
51619;DHT22;38518;53.164;5.430;2024-01-30T11:13:31;8.00;99.90
51619;DHT22;38518;53.164;5.430;2024-01-30T11:16:06;7.90;99.90
51619;DHT22;38518;53.164;5.430;2024-01-30T11:18:32;7.90;99.90
51619;DHT22;38518;53.164;5.430;2024-01-30T11:21:04;7.90;99.90
51619;DHT22;38518;53.164;5.430;2024-01-30T11:23:30;7.80;99.90
51619;DHT22;38518;53.164;5.430;2024-01-30T11:25:58;7.70;99.90
51619;DHT22;38518;53.164;5.430;2024-01-30T11:28:24;7.70;99.90
51619;DHT22;38518;53.164;5.430;2024-01-30T11:30:50;8.50;99.90
51619;DHT22;38518;53.164;5.430;2024-01-30T11:33:29;7.70;99.90
51619;DHT22;38518;53.164;5.430;2024-01-30T11:35:58;7.70;99.90
51619;DHT22;38518;53.164;5.430;2024-01-30T11:38:29;7.70;99.90
51619;DHT22;38518;53.164;5.430;2024-01-30T11:40:55;7.70;99.90
51619;DHT22;38518;53.164;5.430;2024-01-30T11:43:23;7.80;99.90
51619;DHT22;38518;53.164;5.430;2024-01-30T11:45:49;8.00;99.90
51619;DHT22;38518;53.164;5.430;2024-01-30T11:48:15;8.00;99.90
51619;DHT22;38518;53.164;5.430;2024-01-30T11:50:41;8.10;99.90
51619;DHT22;38518;53.164;5.430;2024-01-30T11:53:07;8.00;99.90
51619;DHT22;38518;53.164;5.430;2024-01-30T11:55:33;7.90;99.90
51619;DHT22;38518;53.164;5.430;2024-01-30T11:58:01;7.90;99.90
51619;DHT22;38518;53.164;5.430;2024-01-30T12:00:27;7.90;99.90
51619;DHT22;38518;53.164;5.430;2024-01-30T12:02:55;7.90;99.90
51619;DHT22;38518;53.164;5.430;2024-01-30T12:05:25;7.90;99.90
51619;DHT22;38518;53.164;5.430;2024-01-30T12:07:51;7.90;99.90
51619;DHT22;38518;53.164;5.430;2024-01-30T12:10:18;8.00;99.90
51619;DHT22;38518;53.164;5.430;2024-01-30T12:12:46;8.00;99.90
51619;DHT22;38518;53.164;5.430;2024-01-30T12:15:13;8.00;99.90
51619;DHT22;38518;53.164;5.430;2024-01-30T12:17:39;8.00;99.90
51619;DHT22;38518;53.164;5.430;2024-01-30T12:22:40;8.00;99.90
51619;DHT22;38518;53.164;5.430;2024-01-30T12:25:10;8.00;99.90
51619;DHT22;38518;53.164;5.430;2024-01-30T12:27:37;8.00;99.90
51619;DHT22;38518;53.164;5.430;2024-01-30T12:30:10;8.00;99.90
51619;DHT22;38518;53.164;5.430;2024-01-30T12:32:36;7.90;99.90
51619;DHT22;38518;53.164;5.430;2024-01-30T12:35:03;7.90;99.90
51619;DHT22;38518;53.164;5.430;2024-01-30T12:37:29;7.90;99.90
51619;DHT22;38518;53.164;5.430;2024-01-30T12:39:56;7.90;99.90
51619;DHT22;38518;53.164;5.430;2024-01-30T12:42:22;7.90;99.90
51619;DHT22;38518;53.164;5.430;2024-01-30T12:44:48;7.90;99.90
51619;DHT22;38518;53.164;5.430;2024-01-30T12:47:15;7.90;99.90
51619;DHT22;38518;53.164;5.430;2024-01-30T12:49:44;7.80;99.90
51619;DHT22;38518;53.164;5.430;2024-01-30T12:52:14;7.90;99.90
51619;DHT22;38518;53.164;5.430;2024-01-30T12:54:40;7.80;99.90
51619;DHT22;38518;53.164;5.430;2024-01-30T12:57:06;7.90;99.90
51619;DHT22;38518;53.164;5.430;2024-01-30T12:59:32;7.90;99.90
51619;DHT22;38518;53.164;5.430;2024-01-30T13:01:59;7.90;99.90
51619;DHT22;38518;53.164;5.430;2024-01-30T13:04:25;7.70;99.90
51619;DHT22;38518;53.164;5.430;2024-01-30T13:06:52;8.00;99.90
51619;DHT22;38518;53.164;5.430;2024-01-30T13:09:18;7.80;99.90
51619;DHT22;38518;53.164;5.430;2024-01-30T13:11:43;7.80;99.90
51619;DHT22;38518;53.164;5.430;2024-01-30T13:14:09;7.80;99.90
51619;DHT22;38518;53.164;5.430;2024-01-30T13:16:35;7.90;99.90
51619;DHT22;38518;53.164;5.430;2024-01-30T13:19:01;7.80;99.90
51619;DHT22;38518;53.164;5.430;2024-01-30T13:21:27;7.80;99.90
51619;DHT22;38518;53.164;5.430;2024-01-30T13:23:53;8.40;99.90
51619;DHT22;38518;53.164;5.430;2024-01-30T13:26:22;7.40;99.90
51619;DHT22;38518;53.164;5.430;2024-01-30T13:28:48;7.60;99.90
51619;DHT22;38518;53.164;5.430;2024-01-30T13:31:14;7.70;99.90
51619;DHT22;38518;53.164;5.430;2024-01-30T13:33:40;7.80;99.90
51619;DHT22;38518;53.164;5.430;2024-01-30T13:36:11;7.80;99.90
51619;DHT22;38518;53.164;5.430;2024-01-30T13:38:37;7.80;99.90
51619;DHT22;38518;53.164;5.430;2024-01-30T13:41:03;7.70;99.90
51619;DHT22;38518;53.164;5.430;2024-01-30T13:43:29;7.80;99.90
51619;DHT22;38518;53.164;5.430;2024-01-30T13:45:55;6.70;99.90
51619;DHT22;38518;53.164;5.430;2024-01-30T13:48:21;7.70;99.90
51619;DHT22;38518;53.164;5.430;2024-01-30T13:50:47;7.70;99.90
51619;DHT22;38518;53.164;5.430;2024-01-30T13:53:13;7.70;99.90
51619;DHT22;38518;53.164;5.430;2024-01-30T13:55:39;7.80;99.90
51619;DHT22;38518;53.164;5.430;2024-01-30T13:58:05;7.30;99.90
51619;DHT22;38518;53.164;5.430;2024-01-30T14:00:31;7.60;99.90
51619;DHT22;38518;53.164;5.430;2024-01-30T14:02:57;7.70;99.90
51619;DHT22;38518;53.164;5.430;2024-01-30T14:05:24;7.70;99.90
51619;DHT22;38518;53.164;5.430;2024-01-30T14:07:54;7.70;99.90
51619;DHT22;38518;53.164;5.430;2024-01-30T14:10:20;7.60;99.90
51619;DHT22;38518;53.164;5.430;2024-01-30T14:12:46;7.60;99.90
51619;DHT22;38518;53.164;5.430;2024-01-30T14:15:14;7.60;99.90
51619;DHT22;38518;53.164;5.430;2024-01-30T14:17:47;7.50;99.90
51619;DHT22;38518;53.164;5.430;2024-01-30T14:20:14;7.50;99.90
51619;DHT22;38518;53.164;5.430;2024-01-30T14:22:42;7.50;99.90
51619;DHT22;38518;53.164;5.430;2024-01-30T14:25:08;7.50;99.90
51619;DHT22;38518;53.164;5.430;2024-01-30T14:27:35;7.40;99.90
51619;DHT22;38518;53.164;5.430;2024-01-30T14:30:01;7.40;99.90
51619;DHT22;38518;53.164;5.430;2024-01-30T14:32:28;7.40;99.90
51619;DHT22;38518;53.164;5.430;2024-01-30T14:34:54;7.40;99.90
51619;DHT22;38518;53.164;5.430;2024-01-30T14:37:23;7.30;99.90
51619;DHT22;38518;53.164;5.430;2024-01-30T14:39:49;7.30;99.90
51619;DHT22;38518;53.164;5.430;2024-01-30T14:42:15;7.30;99.90
51619;DHT22;38518;53.164;5.430;2024-01-30T14:44:42;7.30;99.90
51619;DHT22;38518;53.164;5.430;2024-01-30T14:47:08;7.30;99.90
51619;DHT22;38518;53.164;5.430;2024-01-30T14:49:34;7.20;99.90
51619;DHT22;38518;53.164;5.430;2024-01-30T14:52:00;7.20;99.90
51619;DHT22;38518;53.164;5.430;2024-01-30T14:54:26;7.20;99.90
51619;DHT22;38518;53.164;5.430;2024-01-30T14:56:53;7.10;99.90
51619;DHT22;38518;53.164;5.430;2024-01-30T14:59:19;7.10;99.90
51619;DHT22;38518;53.164;5.430;2024-01-30T15:01:45;7.10;99.90
51619;DHT22;38518;53.164;5.430;2024-01-30T15:04:11;7.10;99.90
51619;DHT22;38518;53.164;5.430;2024-01-30T15:06:37;7.10;99.90
51619;DHT22;38518;53.164;5.430;2024-01-30T15:09:03;7.00;99.90
51619;DHT22;38518;53.164;5.430;2024-01-30T15:11:28;7.00;99.90
51619;DHT22;38518;53.164;5.430;2024-01-30T15:13:54;6.90;99.90
51619;DHT22;38518;53.164;5.430;2024-01-30T15:16:20;7.00;99.90
51619;DHT22;38518;53.164;5.430;2024-01-30T15:18:46;7.00;99.90
51619;DHT22;38518;53.164;5.430;2024-01-30T15:21:12;7.00;99.90
51619;DHT22;38518;53.164;5.430;2024-01-30T15:23:38;7.00;99.90
51619;DHT22;38518;53.164;5.430;2024-01-30T15:26:03;7.00;99.90
51619;DHT22;38518;53.164;5.430;2024-01-30T15:28:37;7.00;99.90
51619;DHT22;38518;53.164;5.430;2024-01-30T15:31:03;7.20;99.90
51619;DHT22;38518;53.164;5.430;2024-01-30T15:33:29;6.90;99.90
51619;DHT22;38518;53.164;5.430;2024-01-30T15:35:56;6.40;99.90
51619;DHT22;38518;53.164;5.430;2024-01-30T15:38:22;6.90;99.90
51619;DHT22;38518;53.164;5.430;2024-01-30T15:40:48;6.90;99.90
51619;DHT22;38518;53.164;5.430;2024-01-30T15:43:14;6.90;99.90